sensor_id;sensor_type;location;lat;lon;timestamp;P1;durP1;ratioP1;P2;durP2;ratioP2
76953;SDS011;65893;51.698;-0.292;2023-10-09T00:00:56;9.93;;;4.28;;
76953;SDS011;65893;51.698;-0.292;2023-10-09T00:03:34;9.98;;;4.18;;
76953;SDS011;65893;51.698;-0.292;2023-10-09T00:06:02;11.90;;;4.68;;
76953;SDS011;65893;51.698;-0.292;2023-10-09T00:08:29;17.83;;;4.75;;
76953;SDS011;65893;51.698;-0.292;2023-10-09T00:10:56;10.90;;;4.05;;
76953;SDS011;65893;51.698;-0.292;2023-10-09T00:13:24;12.55;;;4.90;;
76953;SDS011;65893;51.698;-0.292;2023-10-09T00:16:05;13.07;;;4.07;;
76953;SDS011;65893;51.698;-0.292;2023-10-09T00:18:40;11.77;;;4.90;;
76953;SDS011;65893;51.698;-0.292;2023-10-09T00:21:18;11.45;;;4.22;;
76953;SDS011;65893;51.698;-0.292;2023-10-09T00:23:50;15.85;;;4.78;;
76953;SDS011;65893;51.698;-0.292;2023-10-09T00:26:20;12.93;;;4.35;;
76953;SDS011;65893;51.698;-0.292;2023-10-09T00:28:46;11.65;;;4.80;;
76953;SDS011;65893;51.698;-0.292;2023-10-09T00:31:13;13.60;;;4.70;;
76953;SDS011;65893;51.698;-0.292;2023-10-09T00:33:54;11.48;;;4.88;;
76953;SDS011;65893;51.698;-0.292;2023-10-09T00:36:26;10.10;;;3.67;;
76953;SDS011;65893;51.698;-0.292;2023-10-09T00:38:53;11.82;;;4.68;;
76953;SDS011;65893;51.698;-0.292;2023-10-09T00:41:20;11.10;;;4.18;;
76953;SDS011;65893;51.698;-0.292;2023-10-09T00:43:49;11.05;;;4.60;;
76953;SDS011;65893;51.698;-0.292;2023-10-09T00:46:16;9.38;;;4.68;;
76953;SDS011;65893;51.698;-0.292;2023-10-09T00:48:52;13.93;;;4.43;;
76953;SDS011;65893;51.698;-0.292;2023-10-09T00:51:19;11.93;;;3.92;;
76953;SDS011;65893;51.698;-0.292;2023-10-09T00:53:56;12.00;;;4.30;;
76953;SDS011;65893;51.698;-0.292;2023-10-09T00:56:23;9.90;;;4.25;;
76953;SDS011;65893;51.698;-0.292;2023-10-09T00:58:56;10.30;;;3.83;;
76953;SDS011;65893;51.698;-0.292;2023-10-09T01:01:33;10.25;;;4.10;;
76953;SDS011;65893;51.698;-0.292;2023-10-09T01:04:02;9.70;;;3.80;;
76953;SDS011;65893;51.698;-0.292;2023-10-09T01:06:44;13.55;;;4.25;;
76953;SDS011;65893;51.698;-0.292;2023-10-09T01:09:12;14.32;;;4.38;;
76953;SDS011;65893;51.698;-0.292;2023-10-09T01:11:40;11.07;;;3.88;;
76953;SDS011;65893;51.698;-0.292;2023-10-09T01:14:24;10.73;;;4.03;;
76953;SDS011;65893;51.698;-0.292;2023-10-09T01:16:50;9.85;;;4.15;;
76953;SDS011;65893;51.698;-0.292;2023-10-09T01:19:19;10.05;;;3.90;;
76953;SDS011;65893;51.698;-0.292;2023-10-09T01:21:56;11.05;;;4.32;;
76953;SDS011;65893;51.698;-0.292;2023-10-09T01:24:38;10.77;;;4.40;;
76953;SDS011;65893;51.698;-0.292;2023-10-09T01:27:04;11.20;;;4.28;;
76953;SDS011;65893;51.698;-0.292;2023-10-09T01:29:40;16.17;;;5.53;;
76953;SDS011;65893;51.698;-0.292;2023-10-09T01:32:07;12.98;;;5.03;;
76953;SDS011;65893;51.698;-0.292;2023-10-09T01:34:41;14.05;;;4.78;;
76953;SDS011;65893;51.698;-0.292;2023-10-09T01:37:15;13.15;;;4.65;;
76953;SDS011;65893;51.698;-0.292;2023-10-09T01:39:54;12.38;;;4.47;;
76953;SDS011;65893;51.698;-0.292;2023-10-09T01:42:23;9.45;;;4.28;;
76953;SDS011;65893;51.698;-0.292;2023-10-09T01:44:58;13.98;;;4.88;;
76953;SDS011;65893;51.698;-0.292;2023-10-09T01:47:34;10.60;;;4.90;;
76953;SDS011;65893;51.698;-0.292;2023-10-09T01:50:03;11.23;;;4.72;;
76953;SDS011;65893;51.698;-0.292;2023-10-09T01:52:30;12.43;;;5.10;;
76953;SDS011;65893;51.698;-0.292;2023-10-09T01:54:56;9.93;;;4.22;;
76953;SDS011;65893;51.698;-0.292;2023-10-09T01:57:31;12.38;;;4.30;;
76953;SDS011;65893;51.698;-0.292;2023-10-09T01:59:58;10.68;;;4.13;;
76953;SDS011;65893;51.698;-0.292;2023-10-09T02:02:24;11.05;;;4.05;;
76953;SDS011;65893;51.698;-0.292;2023-10-09T02:05:09;10.02;;;4.35;;
76953;SDS011;65893;51.698;-0.292;2023-10-09T02:07:52;10.88;;;4.35;;
76953;SDS011;65893;51.698;-0.292;2023-10-09T02:10:19;9.57;;;4.72;;
76953;SDS011;65893;51.698;-0.292;2023-10-09T02:12:58;11.00;;;4.53;;
76953;SDS011;65893;51.698;-0.292;2023-10-09T02:15:30;13.68;;;4.95;;
76953;SDS011;65893;51.698;-0.292;2023-10-09T02:18:09;12.52;;;4.32;;
76953;SDS011;65893;51.698;-0.292;2023-10-09T02:23:34;12.88;;;4.22;;
76953;SDS011;65893;51.698;-0.292;2023-10-09T02:26:10;11.15;;;4.88;;
76953;SDS011;65893;51.698;-0.292;2023-10-09T02:28:44;12.90;;;5.68;;
76953;SDS011;65893;51.698;-0.292;2023-10-09T02:31:17;13.75;;;4.10;;
76953;SDS011;65893;51.698;-0.292;2023-10-09T02:33:47;9.93;;;4.30;;
76953;SDS011;65893;51.698;-0.292;2023-10-09T02:36:18;15.25;;;4.22;;
76953;SDS011;65893;51.698;-0.292;2023-10-09T02:38:44;10.95;;;4.40;;
76953;SDS011;65893;51.698;-0.292;2023-10-09T02:41:13;9.55;;;4.43;;
76953;SDS011;65893;51.698;-0.292;2023-10-09T02:43:39;10.73;;;3.80;;
76953;SDS011;65893;51.698;-0.292;2023-10-09T02:46:09;10.88;;;3.67;;
76953;SDS011;65893;51.698;-0.292;2023-10-09T02:48:45;9.55;;;4.10;;
76953;SDS011;65893;51.698;-0.292;2023-10-09T02:51:25;11.80;;;3.92;;
76953;SDS011;65893;51.698;-0.292;2023-10-09T02:53:51;8.57;;;3.85;;
76953;SDS011;65893;51.698;-0.292;2023-10-09T02:56:17;16.73;;;5.57;;
76953;SDS011;65893;51.698;-0.292;2023-10-09T03:01:15;13.75;;;3.90;;
76953;SDS011;65893;51.698;-0.292;2023-10-09T03:03:41;9.80;;;4.10;;
76953;SDS011;65893;51.698;-0.292;2023-10-09T03:06:12;12.05;;;4.55;;
76953;SDS011;65893;51.698;-0.292;2023-10-09T03:08:39;14.48;;;4.60;;
76953;SDS011;65893;51.698;-0.292;2023-10-09T03:11:08;9.82;;;4.22;;
76953;SDS011;65893;51.698;-0.292;2023-10-09T03:13:44;12.65;;;4.38;;
76953;SDS011;65893;51.698;-0.292;2023-10-09T03:16:13;12.65;;;4.40;;
76953;SDS011;65893;51.698;-0.292;2023-10-09T03:18:44;11.10;;;3.78;;
76953;SDS011;65893;51.698;-0.292;2023-10-09T03:21:11;9.15;;;3.88;;
76953;SDS011;65893;51.698;-0.292;2023-10-09T03:23:39;9.57;;;4.03;;
76953;SDS011;65893;51.698;-0.292;2023-10-09T03:26:05;11.88;;;4.03;;
76953;SDS011;65893;51.698;-0.292;2023-10-09T03:28:33;12.13;;;4.13;;
76953;SDS011;65893;51.698;-0.292;2023-10-09T03:31:00;9.48;;;3.55;;
76953;SDS011;65893;51.698;-0.292;2023-10-09T03:33:30;11.45;;;4.60;;
76953;SDS011;65893;51.698;-0.292;2023-10-09T03:36:01;11.35;;;4.38;;
76953;SDS011;65893;51.698;-0.292;2023-10-09T03:38:27;11.48;;;4.63;;
76953;SDS011;65893;51.698;-0.292;2023-10-09T03:41:01;9.90;;;3.92;;
76953;SDS011;65893;51.698;-0.292;2023-10-09T03:43:31;10.30;;;3.80;;
76953;SDS011;65893;51.698;-0.292;2023-10-09T03:45:59;11.45;;;3.92;;
76953;SDS011;65893;51.698;-0.292;2023-10-09T03:48:28;10.73;;;3.72;;
76953;SDS011;65893;51.698;-0.292;2023-10-09T03:50:58;12.95;;;4.88;;
76953;SDS011;65893;51.698;-0.292;2023-10-09T03:53:47;12.68;;;4.25;;
76953;SDS011;65893;51.698;-0.292;2023-10-09T03:56:14;11.25;;;4.63;;
76953;SDS011;65893;51.698;-0.292;2023-10-09T03:58:44;10.80;;;4.82;;
76953;SDS011;65893;51.698;-0.292;2023-10-09T04:01:14;10.07;;;4.43;;
76953;SDS011;65893;51.698;-0.292;2023-10-09T04:03:50;11.07;;;4.88;;
76953;SDS011;65893;51.698;-0.292;2023-10-09T04:06:28;12.82;;;5.47;;
76953;SDS011;65893;51.698;-0.292;2023-10-09T04:09:02;11.18;;;5.00;;
76953;SDS011;65893;51.698;-0.292;2023-10-09T04:11:47;11.80;;;4.72;;
76953;SDS011;65893;51.698;-0.292;2023-10-09T04:14:22;9.57;;;3.78;;
76953;SDS011;65893;51.698;-0.292;2023-10-09T04:16:57;12.95;;;5.20;;
76953;SDS011;65893;51.698;-0.292;2023-10-09T04:19:42;12.43;;;4.97;;
76953;SDS011;65893;51.698;-0.292;2023-10-09T04:22:13;10.88;;;5.25;;
76953;SDS011;65893;51.698;-0.292;2023-10-09T04:24:51;12.52;;;5.97;;
76953;SDS011;65893;51.698;-0.292;2023-10-09T04:27:17;10.07;;;4.10;;
76953;SDS011;65893;51.698;-0.292;2023-10-09T04:29:52;12.73;;;4.82;;
76953;SDS011;65893;51.698;-0.292;2023-10-09T04:32:19;14.15;;;5.05;;
76953;SDS011;65893;51.698;-0.292;2023-10-09T04:34:49;12.50;;;5.05;;
76953;SDS011;65893;51.698;-0.292;2023-10-09T04:37:23;12.82;;;4.80;;
76953;SDS011;65893;51.698;-0.292;2023-10-09T04:40:02;12.13;;;5.00;;
76953;SDS011;65893;51.698;-0.292;2023-10-09T04:42:39;14.82;;;4.70;;
76953;SDS011;65893;51.698;-0.292;2023-10-09T04:45:11;15.45;;;5.07;;
76953;SDS011;65893;51.698;-0.292;2023-10-09T04:47:40;13.45;;;5.43;;
76953;SDS011;65893;51.698;-0.292;2023-10-09T04:50:22;10.95;;;4.53;;
76953;SDS011;65893;51.698;-0.292;2023-10-09T04:52:58;13.60;;;5.90;;
76953;SDS011;65893;51.698;-0.292;2023-10-09T04:55:44;11.02;;;5.13;;
76953;SDS011;65893;51.698;-0.292;2023-10-09T04:58:19;12.52;;;5.15;;
76953;SDS011;65893;51.698;-0.292;2023-10-09T05:00:54;11.63;;;5.60;;
76953;SDS011;65893;51.698;-0.292;2023-10-09T05:03:23;17.58;;;5.55;;
76953;SDS011;65893;51.698;-0.292;2023-10-09T05:05:54;11.48;;;4.70;;
76953;SDS011;65893;51.698;-0.292;2023-10-09T05:08:24;14.35;;;5.30;;
76953;SDS011;65893;51.698;-0.292;2023-10-09T05:10:51;9.82;;;4.57;;
76953;SDS011;65893;51.698;-0.292;2023-10-09T05:13:23;12.02;;;4.90;;
76953;SDS011;65893;51.698;-0.292;2023-10-09T05:18:41;14.10;;;5.32;;
76953;SDS011;65893;51.698;-0.292;2023-10-09T05:21:10;12.40;;;5.25;;
76953;SDS011;65893;51.698;-0.292;2023-10-09T05:23:39;14.82;;;5.50;;
76953;SDS011;65893;51.698;-0.292;2023-10-09T05:26:34;12.57;;;5.35;;
76953;SDS011;65893;51.698;-0.292;2023-10-09T05:29:16;15.43;;;5.28;;
76953;SDS011;65893;51.698;-0.292;2023-10-09T05:31:58;15.35;;;6.72;;
76953;SDS011;65893;51.698;-0.292;2023-10-09T05:34:40;10.75;;;5.28;;
76953;SDS011;65893;51.698;-0.292;2023-10-09T05:37:29;18.05;;;5.63;;
76953;SDS011;65893;51.698;-0.292;2023-10-09T05:40:08;14.57;;;6.03;;
76953;SDS011;65893;51.698;-0.292;2023-10-09T05:42:41;11.48;;;5.40;;
76953;SDS011;65893;51.698;-0.292;2023-10-09T05:45:07;17.42;;;6.82;;
76953;SDS011;65893;51.698;-0.292;2023-10-09T05:47:49;12.25;;;5.28;;
76953;SDS011;65893;51.698;-0.292;2023-10-09T05:50:28;18.15;;;6.13;;
76953;SDS011;65893;51.698;-0.292;2023-10-09T05:52:55;12.13;;;5.20;;
76953;SDS011;65893;51.698;-0.292;2023-10-09T05:55:25;10.73;;;4.97;;
76953;SDS011;65893;51.698;-0.292;2023-10-09T05:58:09;17.45;;;5.30;;
76953;SDS011;65893;51.698;-0.292;2023-10-09T06:00:44;14.32;;;6.45;;
76953;SDS011;65893;51.698;-0.292;2023-10-09T06:03:29;13.93;;;5.53;;
76953;SDS011;65893;51.698;-0.292;2023-10-09T06:09:04;10.70;;;4.93;;
76953;SDS011;65893;51.698;-0.292;2023-10-09T06:11:43;13.00;;;5.72;;
76953;SDS011;65893;51.698;-0.292;2023-10-09T06:14:24;15.27;;;5.70;;
76953;SDS011;65893;51.698;-0.292;2023-10-09T06:16:52;13.95;;;6.10;;
76953;SDS011;65893;51.698;-0.292;2023-10-09T06:19:21;10.07;;;5.35;;
76953;SDS011;65893;51.698;-0.292;2023-10-09T06:21:47;13.50;;;5.57;;
76953;SDS011;65893;51.698;-0.292;2023-10-09T06:24:29;13.00;;;5.90;;
76953;SDS011;65893;51.698;-0.292;2023-10-09T06:26:58;15.43;;;4.93;;
76953;SDS011;65893;51.698;-0.292;2023-10-09T06:29:25;12.23;;;4.97;;
76953;SDS011;65893;51.698;-0.292;2023-10-09T06:32:03;9.45;;;5.20;;
76953;SDS011;65893;51.698;-0.292;2023-10-09T06:34:59;15.85;;;4.90;;
76953;SDS011;65893;51.698;-0.292;2023-10-09T06:37:43;12.95;;;4.25;;
76953;SDS011;65893;51.698;-0.292;2023-10-09T06:40:30;10.98;;;4.65;;
76953;SDS011;65893;51.698;-0.292;2023-10-09T06:43:15;10.30;;;4.80;;
76953;SDS011;65893;51.698;-0.292;2023-10-09T06:45:43;9.77;;;4.15;;
76953;SDS011;65893;51.698;-0.292;2023-10-09T06:48:09;13.45;;;5.18;;
76953;SDS011;65893;51.698;-0.292;2023-10-09T06:50:54;12.07;;;4.70;;
76953;SDS011;65893;51.698;-0.292;2023-10-09T06:53:29;12.32;;;5.35;;
76953;SDS011;65893;51.698;-0.292;2023-10-09T06:56:14;11.13;;;5.13;;
76953;SDS011;65893;51.698;-0.292;2023-10-09T06:58:59;12.15;;;4.90;;
76953;SDS011;65893;51.698;-0.292;2023-10-09T07:01:29;14.18;;;4.25;;
76953;SDS011;65893;51.698;-0.292;2023-10-09T07:03:58;14.27;;;4.97;;
76953;SDS011;65893;51.698;-0.292;2023-10-09T07:06:43;11.70;;;4.22;;
76953;SDS011;65893;51.698;-0.292;2023-10-09T07:09:09;9.85;;;3.80;;
76953;SDS011;65893;51.698;-0.292;2023-10-09T07:11:37;12.82;;;4.18;;
76953;SDS011;65893;51.698;-0.292;2023-10-09T07:16:32;11.45;;;4.88;;
76953;SDS011;65893;51.698;-0.292;2023-10-09T07:19:22;10.55;;;4.38;;
76953;SDS011;65893;51.698;-0.292;2023-10-09T07:22:12;12.80;;;4.28;;
76953;SDS011;65893;51.698;-0.292;2023-10-09T07:25:00;13.25;;;4.30;;
76953;SDS011;65893;51.698;-0.292;2023-10-09T07:30:25;9.43;;;3.90;;
76953;SDS011;65893;51.698;-0.292;2023-10-09T07:33:00;13.02;;;4.50;;
76953;SDS011;65893;51.698;-0.292;2023-10-09T07:35:37;16.05;;;4.63;;
76953;SDS011;65893;51.698;-0.292;2023-10-09T07:38:22;14.80;;;4.15;;
76953;SDS011;65893;51.698;-0.292;2023-10-09T07:40:53;10.32;;;4.35;;
76953;SDS011;65893;51.698;-0.292;2023-10-09T07:43:37;12.95;;;4.32;;
76953;SDS011;65893;51.698;-0.292;2023-10-09T07:46:16;14.40;;;4.82;;
76953;SDS011;65893;51.698;-0.292;2023-10-09T07:48:58;10.98;;;3.92;;
76953;SDS011;65893;51.698;-0.292;2023-10-09T07:51:25;12.27;;;4.38;;
76953;SDS011;65893;51.698;-0.292;2023-10-09T07:53:58;9.63;;;3.50;;
76953;SDS011;65893;51.698;-0.292;2023-10-09T07:56:34;14.10;;;4.50;;
76953;SDS011;65893;51.698;-0.292;2023-10-09T07:59:09;11.05;;;3.50;;
76953;SDS011;65893;51.698;-0.292;2023-10-09T08:01:39;12.20;;;5.05;;
76953;SDS011;65893;51.698;-0.292;2023-10-09T08:04:17;16.00;;;4.28;;
76953;SDS011;65893;51.698;-0.292;2023-10-09T08:07:02;10.05;;;3.97;;
76953;SDS011;65893;51.698;-0.292;2023-10-09T08:09:31;13.73;;;4.35;;
76953;SDS011;65893;51.698;-0.292;2023-10-09T08:12:36;10.50;;;4.15;;
76953;SDS011;65893;51.698;-0.292;2023-10-09T08:15:14;13.00;;;4.13;;
76953;SDS011;65893;51.698;-0.292;2023-10-09T08:17:53;9.20;;;4.13;;
76953;SDS011;65893;51.698;-0.292;2023-10-09T08:20:22;11.45;;;4.80;;
76953;SDS011;65893;51.698;-0.292;2023-10-09T08:22:55;15.65;;;4.40;;
76953;SDS011;65893;51.698;-0.292;2023-10-09T08:25:21;11.50;;;4.00;;
76953;SDS011;65893;51.698;-0.292;2023-10-09T08:28:00;10.45;;;4.35;;
76953;SDS011;65893;51.698;-0.292;2023-10-09T08:30:48;9.45;;;3.70;;
76953;SDS011;65893;51.698;-0.292;2023-10-09T08:33:16;9.23;;;3.72;;
76953;SDS011;65893;51.698;-0.292;2023-10-09T08:35:51;11.52;;;3.88;;
76953;SDS011;65893;51.698;-0.292;2023-10-09T08:38:20;10.65;;;4.50;;
76953;SDS011;65893;51.698;-0.292;2023-10-09T08:40:50;9.82;;;3.83;;
76953;SDS011;65893;51.698;-0.292;2023-10-09T08:43:17;15.43;;;3.95;;
76953;SDS011;65893;51.698;-0.292;2023-10-09T08:45:48;9.88;;;4.40;;
76953;SDS011;65893;51.698;-0.292;2023-10-09T08:48:17;10.65;;;3.88;;
76953;SDS011;65893;51.698;-0.292;2023-10-09T08:50:44;14.23;;;4.10;;
76953;SDS011;65893;51.698;-0.292;2023-10-09T08:53:10;10.80;;;3.53;;
76953;SDS011;65893;51.698;-0.292;2023-10-09T08:55:37;11.52;;;4.68;;
76953;SDS011;65893;51.698;-0.292;2023-10-09T08:58:06;13.63;;;4.63;;
76953;SDS011;65893;51.698;-0.292;2023-10-09T09:00:42;10.82;;;4.15;;
76953;SDS011;65893;51.698;-0.292;2023-10-09T09:03:10;8.93;;;3.83;;
76953;SDS011;65893;51.698;-0.292;2023-10-09T09:05:37;10.05;;;3.80;;
76953;SDS011;65893;51.698;-0.292;2023-10-09T09:08:03;13.27;;;4.45;;
76953;SDS011;65893;51.698;-0.292;2023-10-09T09:10:29;10.90;;;3.67;;
76953;SDS011;65893;51.698;-0.292;2023-10-09T09:13:04;9.10;;;3.92;;
76953;SDS011;65893;51.698;-0.292;2023-10-09T09:15:31;11.70;;;3.75;;
76953;SDS011;65893;51.698;-0.292;2023-10-09T09:18:08;8.82;;;4.15;;
76953;SDS011;65893;51.698;-0.292;2023-10-09T09:20:35;15.80;;;4.10;;
76953;SDS011;65893;51.698;-0.292;2023-10-09T09:23:05;10.40;;;4.20;;
76953;SDS011;65893;51.698;-0.292;2023-10-09T09:28:09;10.80;;;4.28;;
76953;SDS011;65893;51.698;-0.292;2023-10-09T09:30:38;8.95;;;3.33;;
76953;SDS011;65893;51.698;-0.292;2023-10-09T09:36:01;9.88;;;4.63;;
76953;SDS011;65893;51.698;-0.292;2023-10-09T09:38:28;9.35;;;4.20;;
76953;SDS011;65893;51.698;-0.292;2023-10-09T09:40:57;11.35;;;4.03;;
76953;SDS011;65893;51.698;-0.292;2023-10-09T09:43:27;12.98;;;5.15;;
76953;SDS011;65893;51.698;-0.292;2023-10-09T09:45:55;17.05;;;3.85;;
76953;SDS011;65893;51.698;-0.292;2023-10-09T09:48:22;10.52;;;4.10;;
76953;SDS011;65893;51.698;-0.292;2023-10-09T09:50:48;11.65;;;4.28;;
76953;SDS011;65893;51.698;-0.292;2023-10-09T09:53:19;9.75;;;3.85;;
76953;SDS011;65893;51.698;-0.292;2023-10-09T09:55:51;10.38;;;3.95;;
76953;SDS011;65893;51.698;-0.292;2023-10-09T09:58:22;9.63;;;3.33;;
76953;SDS011;65893;51.698;-0.292;2023-10-09T10:00:53;10.95;;;4.10;;
76953;SDS011;65893;51.698;-0.292;2023-10-09T10:03:26;11.73;;;4.13;;
76953;SDS011;65893;51.698;-0.292;2023-10-09T10:05:53;14.15;;;4.28;;
76953;SDS011;65893;51.698;-0.292;2023-10-09T10:08:21;8.65;;;4.28;;
76953;SDS011;65893;51.698;-0.292;2023-10-09T10:10:56;11.32;;;4.18;;
76953;SDS011;65893;51.698;-0.292;2023-10-09T10:16:13;11.63;;;4.20;;
76953;SDS011;65893;51.698;-0.292;2023-10-09T10:18:54;10.02;;;3.92;;
76953;SDS011;65893;51.698;-0.292;2023-10-09T10:21:36;12.50;;;4.32;;
76953;SDS011;65893;51.698;-0.292;2023-10-09T10:26:40;17.75;;;5.63;;
76953;SDS011;65893;51.698;-0.292;2023-10-09T10:29:13;10.68;;;4.18;;
76953;SDS011;65893;51.698;-0.292;2023-10-09T10:32:06;10.30;;;4.22;;
76953;SDS011;65893;51.698;-0.292;2023-10-09T10:37:15;9.10;;;4.18;;
76953;SDS011;65893;51.698;-0.292;2023-10-09T10:39:50;11.35;;;4.18;;
76953;SDS011;65893;51.698;-0.292;2023-10-09T10:42:25;10.25;;;3.97;;
76953;SDS011;65893;51.698;-0.292;2023-10-09T10:45:03;9.20;;;2.92;;
76953;SDS011;65893;51.698;-0.292;2023-10-09T10:47:49;11.00;;;4.15;;
76953;SDS011;65893;51.698;-0.292;2023-10-09T10:50:19;13.63;;;3.60;;
76953;SDS011;65893;51.698;-0.292;2023-10-09T10:53:06;10.50;;;3.55;;
76953;SDS011;65893;51.698;-0.292;2023-10-09T10:55:56;9.80;;;3.33;;
76953;SDS011;65893;51.698;-0.292;2023-10-09T10:58:23;13.57;;;3.28;;
76953;SDS011;65893;51.698;-0.292;2023-10-09T11:01:12;9.68;;;3.50;;
76953;SDS011;65893;51.698;-0.292;2023-10-09T11:03:38;14.55;;;4.07;;
76953;SDS011;65893;51.698;-0.292;2023-10-09T11:09:07;10.95;;;4.13;;
76953;SDS011;65893;51.698;-0.292;2023-10-09T11:11:46;9.05;;;3.97;;
76953;SDS011;65893;51.698;-0.292;2023-10-09T11:14:13;10.70;;;3.38;;
76953;SDS011;65893;51.698;-0.292;2023-10-09T11:16:51;9.63;;;3.13;;
76953;SDS011;65893;51.698;-0.292;2023-10-09T11:21:56;7.30;;;3.03;;
76953;SDS011;65893;51.698;-0.292;2023-10-09T11:24:28;9.57;;;3.78;;
76953;SDS011;65893;51.698;-0.292;2023-10-09T11:27:06;10.18;;;4.07;;
76953;SDS011;65893;51.698;-0.292;2023-10-09T11:29:33;16.60;;;4.05;;
76953;SDS011;65893;51.698;-0.292;2023-10-09T11:32:08;9.93;;;3.22;;
76953;SDS011;65893;51.698;-0.292;2023-10-09T11:34:43;11.23;;;3.60;;
76953;SDS011;65893;51.698;-0.292;2023-10-09T11:37:17;9.82;;;3.55;;
76953;SDS011;65893;51.698;-0.292;2023-10-09T11:39:56;8.25;;;3.47;;
76953;SDS011;65893;51.698;-0.292;2023-10-09T11:42:23;9.43;;;4.22;;
76953;SDS011;65893;51.698;-0.292;2023-10-09T11:45:03;11.48;;;4.00;;
76953;SDS011;65893;51.698;-0.292;2023-10-09T11:47:44;11.55;;;4.03;;
76953;SDS011;65893;51.698;-0.292;2023-10-09T11:53:16;13.10;;;3.63;;
76953;SDS011;65893;51.698;-0.292;2023-10-09T11:55:45;13.65;;;3.50;;
76953;SDS011;65893;51.698;-0.292;2023-10-09T11:58:14;10.45;;;3.95;;
76953;SDS011;65893;51.698;-0.292;2023-10-09T12:00:40;10.35;;;3.40;;
76953;SDS011;65893;51.698;-0.292;2023-10-09T12:03:12;9.55;;;3.42;;
76953;SDS011;65893;51.698;-0.292;2023-10-09T12:05:39;15.13;;;4.15;;
76953;SDS011;65893;51.698;-0.292;2023-10-09T12:08:09;13.73;;;3.22;;
76953;SDS011;65893;51.698;-0.292;2023-10-09T12:10:36;13.90;;;5.25;;
76953;SDS011;65893;51.698;-0.292;2023-10-09T12:13:06;13.10;;;3.95;;
76953;SDS011;65893;51.698;-0.292;2023-10-09T12:15:32;10.88;;;3.75;;
76953;SDS011;65893;51.698;-0.292;2023-10-09T12:18:05;12.95;;;4.18;;
76953;SDS011;65893;51.698;-0.292;2023-10-09T12:20:39;13.98;;;5.30;;
76953;SDS011;65893;51.698;-0.292;2023-10-09T12:23:05;9.23;;;4.00;;
76953;SDS011;65893;51.698;-0.292;2023-10-09T12:25:34;10.43;;;3.63;;
76953;SDS011;65893;51.698;-0.292;2023-10-09T12:28:01;10.07;;;3.80;;
76953;SDS011;65893;51.698;-0.292;2023-10-09T12:30:30;10.27;;;3.45;;
76953;SDS011;65893;51.698;-0.292;2023-10-09T12:33:03;10.55;;;3.95;;
76953;SDS011;65893;51.698;-0.292;2023-10-09T12:35:29;10.20;;;3.67;;
76953;SDS011;65893;51.698;-0.292;2023-10-09T12:37:59;9.00;;;3.85;;
76953;SDS011;65893;51.698;-0.292;2023-10-09T12:40:25;9.52;;;3.95;;
76953;SDS011;65893;51.698;-0.292;2023-10-09T12:42:56;13.88;;;3.58;;
76953;SDS011;65893;51.698;-0.292;2023-10-09T12:45:28;9.63;;;2.97;;
76953;SDS011;65893;51.698;-0.292;2023-10-09T12:48:04;7.78;;;3.30;;
76953;SDS011;65893;51.698;-0.292;2023-10-09T12:50:34;8.48;;;3.03;;
76953;SDS011;65893;51.698;-0.292;2023-10-09T12:53:06;12.85;;;3.67;;
76953;SDS011;65893;51.698;-0.292;2023-10-09T12:55:38;9.68;;;3.88;;
76953;SDS011;65893;51.698;-0.292;2023-10-09T12:58:08;9.75;;;3.60;;
76953;SDS011;65893;51.698;-0.292;2023-10-09T13:00:39;11.75;;;3.25;;
76953;SDS011;65893;51.698;-0.292;2023-10-09T13:03:12;15.57;;;4.00;;
76953;SDS011;65893;51.698;-0.292;2023-10-09T13:10:50;9.70;;;3.30;;
76953;SDS011;65893;51.698;-0.292;2023-10-09T13:13:39;9.82;;;3.90;;
76953;SDS011;65893;51.698;-0.292;2023-10-09T13:16:14;9.70;;;3.50;;
76953;SDS011;65893;51.698;-0.292;2023-10-09T13:18:50;14.13;;;3.25;;
76953;SDS011;65893;51.698;-0.292;2023-10-09T13:21:23;10.55;;;3.53;;
76953;SDS011;65893;51.698;-0.292;2023-10-09T13:23:50;15.38;;;3.38;;
76953;SDS011;65893;51.698;-0.292;2023-10-09T13:26:20;15.13;;;3.95;;
76953;SDS011;65893;51.698;-0.292;2023-10-09T13:29:06;12.88;;;3.58;;
76953;SDS011;65893;51.698;-0.292;2023-10-09T13:31:34;10.05;;;3.58;;
76953;SDS011;65893;51.698;-0.292;2023-10-09T13:34:03;13.05;;;2.95;;
76953;SDS011;65893;51.698;-0.292;2023-10-09T13:36:31;11.75;;;3.42;;
76953;SDS011;65893;51.698;-0.292;2023-10-09T13:41:45;9.43;;;3.83;;
76953;SDS011;65893;51.698;-0.292;2023-10-09T13:44:11;12.23;;;3.40;;
76953;SDS011;65893;51.698;-0.292;2023-10-09T13:46:37;12.07;;;3.22;;
76953;SDS011;65893;51.698;-0.292;2023-10-09T13:49:09;11.55;;;3.30;;
76953;SDS011;65893;51.698;-0.292;2023-10-09T13:51:42;9.60;;;3.42;;
76953;SDS011;65893;51.698;-0.292;2023-10-09T13:54:14;10.05;;;3.88;;
76953;SDS011;65893;51.698;-0.292;2023-10-09T13:56:49;11.50;;;3.53;;
76953;SDS011;65893;51.698;-0.292;2023-10-09T13:59:18;13.45;;;3.53;;
76953;SDS011;65893;51.698;-0.292;2023-10-09T14:01:46;16.48;;;4.05;;
76953;SDS011;65893;51.698;-0.292;2023-10-09T14:04:13;13.48;;;3.90;;
76953;SDS011;65893;51.698;-0.292;2023-10-09T14:06:43;11.32;;;3.03;;
76953;SDS011;65893;51.698;-0.292;2023-10-09T14:09:09;10.75;;;3.45;;
76953;SDS011;65893;51.698;-0.292;2023-10-09T14:11:36;12.20;;;3.72;;
76953;SDS011;65893;51.698;-0.292;2023-10-09T14:14:09;12.48;;;3.40;;
76953;SDS011;65893;51.698;-0.292;2023-10-09T14:16:37;18.15;;;3.53;;
76953;SDS011;65893;51.698;-0.292;2023-10-09T14:19:08;9.88;;;3.40;;
76953;SDS011;65893;51.698;-0.292;2023-10-09T14:21:38;11.95;;;2.95;;
76953;SDS011;65893;51.698;-0.292;2023-10-09T14:24:07;11.00;;;3.10;;
76953;SDS011;65893;51.698;-0.292;2023-10-09T14:26:44;15.18;;;3.67;;
76953;SDS011;65893;51.698;-0.292;2023-10-09T14:29:12;14.80;;;3.40;;
76953;SDS011;65893;51.698;-0.292;2023-10-09T14:31:44;16.45;;;4.30;;
76953;SDS011;65893;51.698;-0.292;2023-10-09T14:34:14;13.10;;;4.13;;
76953;SDS011;65893;51.698;-0.292;2023-10-09T14:36:40;13.38;;;4.60;;
76953;SDS011;65893;51.698;-0.292;2023-10-09T14:39:09;11.77;;;3.38;;
76953;SDS011;65893;51.698;-0.292;2023-10-09T14:41:43;10.02;;;3.50;;
76953;SDS011;65893;51.698;-0.292;2023-10-09T14:44:10;10.32;;;2.85;;
76953;SDS011;65893;51.698;-0.292;2023-10-09T14:46:41;7.88;;;2.90;;
76953;SDS011;65893;51.698;-0.292;2023-10-09T14:49:08;12.18;;;3.65;;
76953;SDS011;65893;51.698;-0.292;2023-10-09T14:51:39;12.57;;;3.28;;
76953;SDS011;65893;51.698;-0.292;2023-10-09T14:54:05;11.45;;;3.15;;
76953;SDS011;65893;51.698;-0.292;2023-10-09T14:56:33;9.80;;;3.17;;
76953;SDS011;65893;51.698;-0.292;2023-10-09T14:59:01;13.90;;;3.40;;
76953;SDS011;65893;51.698;-0.292;2023-10-09T15:01:31;15.90;;;4.03;;
76953;SDS011;65893;51.698;-0.292;2023-10-09T15:04:00;14.48;;;2.95;;
76953;SDS011;65893;51.698;-0.292;2023-10-09T15:06:29;10.57;;;3.45;;
76953;SDS011;65893;51.698;-0.292;2023-10-09T15:08:56;13.05;;;3.33;;
76953;SDS011;65893;51.698;-0.292;2023-10-09T15:11:26;9.98;;;3.30;;
76953;SDS011;65893;51.698;-0.292;2023-10-09T15:13:53;11.77;;;3.05;;
76953;SDS011;65893;51.698;-0.292;2023-10-09T15:16:21;13.88;;;3.20;;
76953;SDS011;65893;51.698;-0.292;2023-10-09T15:18:51;13.13;;;3.42;;
76953;SDS011;65893;51.698;-0.292;2023-10-09T15:21:18;11.18;;;3.35;;
76953;SDS011;65893;51.698;-0.292;2023-10-09T15:23:51;14.57;;;3.38;;
76953;SDS011;65893;51.698;-0.292;2023-10-09T15:26:19;13.32;;;3.28;;
76953;SDS011;65893;51.698;-0.292;2023-10-09T15:28:49;9.63;;;3.35;;
76953;SDS011;65893;51.698;-0.292;2023-10-09T15:31:15;12.48;;;3.58;;
76953;SDS011;65893;51.698;-0.292;2023-10-09T15:33:42;10.60;;;3.38;;
76953;SDS011;65893;51.698;-0.292;2023-10-09T15:36:09;14.02;;;3.38;;
76953;SDS011;65893;51.698;-0.292;2023-10-09T15:38:36;11.80;;;3.35;;
76953;SDS011;65893;51.698;-0.292;2023-10-09T15:41:02;12.40;;;3.70;;